createdAt,value
2023-02-23T00:01:45.008Z,21.82
2023-02-23T00:04:32.741Z,22.52
2023-02-23T00:07:23.052Z,23.92
2023-02-23T00:10:12.059Z,22.67
2023-02-23T00:13:00.465Z,24.30
2023-02-23T00:15:47.856Z,24.82
2023-02-23T00:18:37.007Z,23.52
2023-02-23T00:21:38.497Z,23.55
2023-02-23T00:24:27.001Z,23.87
2023-02-23T00:27:16.183Z,23.77
2023-02-23T00:30:03.485Z,24.30
2023-02-23T00:32:53.557Z,24.35
2023-02-23T00:35:40.644Z,24.10
2023-02-23T00:38:28.065Z,24.40
2023-02-23T00:41:21.147Z,25.55
2023-02-23T00:44:08.822Z,23.55
2023-02-23T00:46:56.111Z,23.52
2023-02-23T00:49:45.987Z,23.18
2023-02-23T00:52:33.494Z,23.52
2023-02-23T00:55:20.827Z,23.67
2023-02-23T00:58:09.668Z,24.63
2023-02-23T01:00:59.171Z,24.12
2023-02-23T01:03:47.110Z,25.10
2023-02-23T01:06:37.067Z,24.98
2023-02-23T01:09:26.223Z,24.52
2023-02-23T01:12:13.263Z,24.32
2023-02-23T01:15:02.387Z,23.83
2023-02-23T01:17:49.871Z,24.55
2023-02-23T01:20:38.373Z,24.35
2023-02-23T01:23:25.803Z,23.57
2023-02-23T01:26:29.037Z,22.52
2023-02-23T01:29:18.567Z,24.60
2023-02-23T01:32:06.201Z,23.83
2023-02-23T01:34:53.498Z,23.35
2023-02-23T01:37:43.245Z,22.60
2023-02-23T01:40:30.759Z,23.38
2023-02-23T01:43:26.099Z,25.08
2023-02-23T01:46:13.197Z,23.75
2023-02-23T01:49:01.556Z,24.05
2023-02-23T01:51:51.868Z,23.40
2023-02-23T01:54:49.652Z,25.05
2023-02-23T01:57:37.695Z,24.52
2023-02-23T02:00:27.182Z,24.30
2023-02-23T02:03:22.226Z,25.12
2023-02-23T02:06:14.143Z,24.12
2023-02-23T02:09:07.904Z,24.80
2023-02-23T02:11:55.384Z,25.00
2023-02-23T02:14:43.272Z,26.17
2023-02-23T02:17:39.675Z,27.05
2023-02-23T02:20:37.905Z,27.13
2023-02-23T02:23:53.042Z,27.15
2023-02-23T02:27:15.458Z,26.30
2023-02-23T02:30:10.814Z,25.52
2023-02-23T02:33:13.877Z,25.23
2023-02-23T02:36:13.316Z,25.92
2023-02-23T02:39:36.973Z,26.80
2023-02-23T02:42:40.779Z,25.85
2023-02-23T02:46:03.501Z,26.57
2023-02-23T02:49:02.488Z,27.40
2023-02-23T02:52:05.753Z,26.68
2023-02-23T02:54:56.581Z,28.23
2023-02-23T02:57:46.726Z,26.45
2023-02-23T03:00:58.168Z,27.00
2023-02-23T03:04:06.087Z,27.55
2023-02-23T03:07:14.628Z,28.23
2023-02-23T03:10:29.340Z,29.45
2023-02-23T03:13:37.857Z,28.57
2023-02-23T03:16:55.476Z,28.00
2023-02-23T03:20:15.744Z,25.12
2023-02-23T03:23:27.056Z,26.37
2023-02-23T03:26:41.011Z,27.62
2023-02-23T03:30:10.565Z,27.67
2023-02-23T03:33:19.327Z,27.00
2023-02-23T03:36:33.994Z,26.42
2023-02-23T03:39:42.231Z,27.45
2023-02-23T03:42:50.723Z,26.17
2023-02-23T03:45:57.129Z,28.95
2023-02-23T03:49:05.205Z,27.77
2023-02-23T03:52:13.575Z,28.00
2023-02-23T03:55:21.460Z,27.30
2023-02-23T03:58:30.001Z,29.65
2023-02-23T04:01:38.168Z,28.57
2023-02-23T04:04:46.447Z,28.77
2023-02-23T04:07:53.273Z,28.25
2023-02-23T04:11:01.624Z,27.20
2023-02-23T04:13:51.927Z,25.65
2023-02-23T04:16:39.676Z,25.88
2023-02-23T04:19:30.105Z,25.85
2023-02-23T04:22:17.422Z,27.70
2023-02-23T04:25:06.133Z,27.75
2023-02-23T04:27:53.730Z,27.60
2023-02-23T04:30:41.898Z,27.52
2023-02-23T04:33:29.475Z,29.18
2023-02-23T04:36:17.373Z,28.32
2023-02-23T04:39:04.923Z,29.15
2023-02-23T04:41:52.467Z,29.72
2023-02-23T04:44:39.868Z,28.85
2023-02-23T04:47:27.086Z,30.72
2023-02-23T04:50:15.016Z,27.70
2023-02-23T04:53:02.491Z,29.75
2023-02-23T04:55:50.016Z,28.52
2023-02-23T04:58:38.949Z,29.05
2023-02-23T05:01:27.241Z,31.42
2023-02-23T05:04:14.327Z,30.90
2023-02-23T05:07:04.833Z,31.50
2023-02-23T05:09:52.143Z,29.52
2023-02-23T05:12:39.517Z,30.45
2023-02-23T05:15:26.762Z,29.42
2023-02-23T05:18:15.561Z,28.80
2023-02-23T05:21:06.984Z,27.50
2023-02-23T05:23:54.161Z,27.65
2023-02-23T05:26:41.428Z,28.27
2023-02-23T05:29:28.899Z,30.25
2023-02-23T05:32:16.537Z,29.95
2023-02-23T05:35:04.771Z,30.00
2023-02-23T05:37:56.592Z,31.65
2023-02-23T05:40:43.794Z,30.65
2023-02-23T05:43:31.493Z,27.95
2023-02-23T05:46:21.786Z,25.82
2023-02-23T05:49:11.134Z,26.17
2023-02-23T05:51:58.332Z,28.25
2023-02-23T05:54:46.771Z,28.52
2023-02-23T05:57:34.195Z,26.65
2023-02-23T06:00:21.995Z,26.20
2023-02-23T06:03:09.315Z,28.62
2023-02-23T06:05:59.049Z,30.85
2023-02-23T06:08:46.536Z,28.55
2023-02-23T06:11:33.784Z,30.52
2023-02-23T06:14:21.422Z,30.30
2023-02-23T06:17:08.917Z,29.42
2023-02-23T06:19:56.030Z,30.62
2023-02-23T06:22:44.936Z,30.10
2023-02-23T06:25:32.920Z,30.57
2023-02-23T06:28:20.229Z,29.72
2023-02-23T06:31:07.780Z,29.40
2023-02-23T06:33:54.917Z,28.30
2023-02-23T06:36:42.382Z,27.58
2023-02-23T06:39:29.786Z,28.02
2023-02-23T06:42:17.852Z,27.00
2023-02-23T06:45:05.902Z,26.77
2023-02-23T06:47:53.623Z,27.90
2023-02-23T06:50:40.932Z,30.08
2023-02-23T06:53:28.922Z,30.23
2023-02-23T06:56:16.337Z,31.77
2023-02-23T06:59:03.646Z,33.13
2023-02-23T07:01:51.769Z,30.85
2023-02-23T07:04:39.292Z,28.20
2023-02-23T07:07:26.490Z,30.60
2023-02-23T07:10:14.153Z,32.53
2023-02-23T07:13:01.434Z,33.35
2023-02-23T07:15:52.025Z,30.90
2023-02-23T07:18:39.483Z,31.23
2023-02-23T07:21:26.982Z,32.13
2023-02-23T07:24:14.659Z,32.53
2023-02-23T07:27:02.377Z,32.55
2023-02-23T07:29:50.033Z,29.50
2023-02-23T07:32:37.676Z,29.45
2023-02-23T07:35:26.619Z,29.00
2023-02-23T07:38:14.454Z,29.80
2023-02-23T07:41:02.472Z,28.77
2023-02-23T07:43:50.153Z,30.02
2023-02-23T07:46:37.446Z,29.42
2023-02-23T07:49:25.419Z,29.85
2023-02-23T07:52:12.586Z,28.55
2023-02-23T07:54:59.898Z,29.18
2023-02-23T07:57:47.493Z,31.12
2023-02-23T08:00:36.835Z,29.65
2023-02-23T08:03:24.486Z,30.45
2023-02-23T08:06:12.036Z,29.42
2023-02-23T08:09:04.258Z,28.35
2023-02-23T08:11:51.646Z,30.20
2023-02-23T08:14:39.183Z,30.10
2023-02-23T08:17:27.533Z,30.48
2023-02-23T08:20:14.753Z,29.32
2023-02-23T08:23:03.964Z,29.12
2023-02-23T08:25:54.456Z,29.35
2023-02-23T08:28:43.675Z,28.38
2023-02-23T08:31:31.135Z,28.92
2023-02-23T08:34:20.319Z,30.92
2023-02-23T08:37:08.249Z,29.92
2023-02-23T08:39:55.880Z,28.35
2023-02-23T08:42:45.144Z,29.95
2023-02-23T08:45:32.665Z,28.57
2023-02-23T08:48:21.960Z,27.98
2023-02-23T08:51:10.024Z,27.40
2023-02-23T08:53:57.520Z,27.75
2023-02-23T08:56:45.831Z,27.15
2023-02-23T08:59:33.201Z,27.65
2023-02-23T09:02:21.043Z,27.20
2023-02-23T09:05:10.617Z,27.67
2023-02-23T09:07:57.602Z,26.95
2023-02-23T09:10:45.071Z,27.90
2023-02-23T09:13:33.299Z,25.82
2023-02-23T09:16:22.150Z,26.97
2023-02-23T09:19:09.667Z,26.23
2023-02-23T09:21:57.199Z,28.30
2023-02-23T09:24:44.693Z,28.60
2023-02-23T09:27:32.169Z,29.00
2023-02-23T09:30:25.028Z,29.63
2023-02-23T09:33:12.774Z,28.30
2023-02-23T09:35:59.963Z,28.55
2023-02-23T09:38:50.185Z,29.12
2023-02-23T09:42:08.347Z,28.83
2023-02-23T09:45:32.476Z,28.32
2023-02-23T09:48:25.333Z,27.30
2023-02-23T09:51:15.633Z,29.48
2023-02-23T09:54:04.392Z,27.32
2023-02-23T09:56:54.280Z,27.98
2023-02-23T09:59:42.521Z,28.15
2023-02-23T10:02:34.605Z,26.82
2023-02-23T10:05:24.589Z,26.62
2023-02-23T10:08:26.567Z,27.30
2023-02-23T10:11:19.761Z,26.52
2023-02-23T10:14:25.803Z,25.97
2023-02-23T10:17:22.364Z,27.62
2023-02-23T10:20:30.520Z,28.15
2023-02-23T10:23:21.166Z,25.92
2023-02-23T10:26:12.530Z,27.13
2023-02-23T10:29:01.257Z,28.50
2023-02-23T10:31:51.801Z,26.77
2023-02-23T10:34:40.627Z,27.45
2023-02-23T10:37:28.387Z,24.00
2023-02-23T10:40:20.317Z,23.12
2023-02-23T10:43:07.809Z,24.32
2023-02-23T10:45:55.969Z,22.10
2023-02-23T10:48:44.364Z,22.13
2023-02-23T10:51:34.926Z,22.05
2023-02-23T10:54:44.588Z,21.20
2023-02-23T10:57:40.024Z,22.32
2023-02-23T11:00:31.275Z,21.87
2023-02-23T11:03:48.287Z,19.67
2023-02-23T11:06:43.199Z,19.42
2023-02-23T11:09:45.576Z,17.90
2023-02-23T11:12:29.602Z,17.25
2023-02-23T11:15:35.268Z,17.30
2023-02-23T11:18:20.798Z,16.27
2023-02-23T11:21:13.834Z,17.12
2023-02-23T11:24:22.887Z,16.70
2023-02-23T11:27:14.667Z,17.65
2023-02-23T11:30:06.094Z,15.58
2023-02-23T11:32:56.748Z,16.55
2023-02-23T11:35:44.301Z,16.42
2023-02-23T11:38:33.172Z,17.67
2023-02-23T11:41:23.352Z,15.35
2023-02-23T11:44:23.740Z,17.20
2023-02-23T11:47:26.298Z,16.48
2023-02-23T11:50:32.699Z,15.30
2023-02-23T11:53:27.532Z,15.40
2023-02-23T11:56:17.662Z,15.55
2023-02-23T11:59:10.795Z,14.35
2023-02-23T12:02:07.084Z,14.85
2023-02-23T12:05:12.558Z,14.57
2023-02-23T12:08:09.037Z,14.07
2023-02-23T12:10:58.942Z,13.13
2023-02-23T12:13:58.600Z,14.30
2023-02-23T12:16:52.199Z,12.07
2023-02-23T12:19:51.684Z,10.75
2023-02-23T12:22:48.372Z,10.43
2023-02-23T12:25:38.776Z,10.80
2023-02-23T12:28:40.542Z,11.48
2023-02-23T12:31:38.827Z,10.08
2023-02-23T12:34:50.485Z,9.33
2023-02-23T12:37:43.990Z,8.25
2023-02-23T12:40:38.048Z,7.00
2023-02-23T12:43:52.628Z,6.75
2023-02-23T12:46:47.748Z,7.30
2023-02-23T12:49:44.101Z,6.95
2023-02-23T12:52:34.477Z,7.03
2023-02-23T12:55:38.877Z,7.40
2023-02-23T12:58:45.334Z,7.45
2023-02-23T13:01:35.644Z,6.65
2023-02-23T13:04:42.844Z,7.28
2023-02-23T13:07:39.404Z,6.83
2023-02-23T13:10:48.952Z,6.73
2023-02-23T13:13:51.787Z,6.00
2023-02-23T13:16:52.146Z,6.95
2023-02-23T13:19:59.119Z,6.25
2023-02-23T13:23:15.089Z,7.05
2023-02-23T13:26:17.504Z,6.60
2023-02-23T13:29:17.147Z,6.33
2023-02-23T13:32:07.859Z,7.17
2023-02-23T13:35:03.413Z,7.08
2023-02-23T13:37:56.875Z,6.75
2023-02-23T13:40:59.372Z,7.17
2023-02-23T13:44:13.611Z,6.87
2023-02-23T13:47:18.856Z,8.00
2023-02-23T13:50:30.228Z,7.75
2023-02-23T13:53:35.767Z,7.70
2023-02-23T13:56:29.638Z,7.70
2023-02-23T13:59:25.852Z,9.30
2023-02-23T14:02:28.711Z,8.70
2023-02-23T14:05:30.023Z,9.03
2023-02-23T14:08:38.813Z,9.35
2023-02-23T14:11:51.369Z,8.28
2023-02-23T14:14:42.798Z,9.40
2023-02-23T14:17:39.362Z,9.18
2023-02-23T14:20:39.124Z,8.93
2023-02-23T14:23:30.015Z,9.38
2023-02-23T14:26:32.990Z,9.40
2023-02-23T14:29:26.961Z,9.60
2023-02-23T14:32:17.992Z,8.28
2023-02-23T14:35:05.662Z,8.28
2023-02-23T14:37:59.063Z,9.95
2023-02-23T14:40:49.667Z,9.18
2023-02-23T14:43:41.913Z,9.15
2023-02-23T14:46:29.486Z,9.70
2023-02-23T14:49:25.745Z,9.05
2023-02-23T14:52:40.756Z,8.85
2023-02-23T14:55:30.402Z,10.03
2023-02-23T14:58:29.536Z,9.48
2023-02-23T15:01:34.169Z,9.80
2023-02-23T15:04:27.677Z,10.00
2023-02-23T15:07:22.730Z,9.13
2023-02-23T15:10:25.122Z,8.40
2023-02-23T15:13:30.365Z,7.92
2023-02-23T15:16:23.016Z,6.97
2023-02-23T15:19:36.199Z,6.17
2023-02-23T15:22:26.392Z,6.92
2023-02-23T15:25:17.068Z,6.00
2023-02-23T15:28:23.589Z,6.65
2023-02-23T15:31:13.806Z,6.93
2023-02-23T15:34:01.252Z,7.05
2023-02-23T15:36:51.748Z,7.92
2023-02-23T15:39:47.971Z,8.43
2023-02-23T15:42:37.964Z,9.28
2023-02-23T15:45:48.107Z,8.05
2023-02-23T15:48:47.509Z,7.08
2023-02-23T15:51:37.868Z,7.22
2023-02-23T15:54:34.209Z,8.28
2023-02-23T15:57:24.726Z,8.15
2023-02-23T16:00:22.821Z,8.03
2023-02-23T16:03:25.493Z,7.80
2023-02-23T16:06:24.823Z,8.58
2023-02-23T16:09:24.466Z,8.38
2023-02-23T16:12:17.436Z,6.62
2023-02-23T16:15:25.872Z,7.80
2023-02-23T16:18:16.500Z,6.60
2023-02-23T16:21:05.173Z,7.00
2023-02-23T16:23:55.181Z,7.58
2023-02-23T16:26:57.257Z,7.10
2023-02-23T16:29:45.089Z,8.13
2023-02-23T16:32:38.762Z,7.80
2023-02-23T16:35:25.963Z,7.87
2023-02-23T16:38:16.178Z,8.28
2023-02-23T16:41:05.356Z,8.95
2023-02-23T16:43:55.227Z,10.05
2023-02-23T16:46:48.425Z,10.03
2023-02-23T16:49:35.846Z,10.05
2023-02-23T16:52:25.629Z,9.83
2023-02-23T16:55:18.592Z,9.93
2023-02-23T16:58:09.248Z,9.15
2023-02-23T17:00:56.958Z,8.40
2023-02-23T17:03:53.318Z,9.25
2023-02-23T17:06:38.231Z,8.58
2023-02-23T17:09:27.584Z,7.97
2023-02-23T17:12:21.889Z,8.83
2023-02-23T17:15:12.754Z,9.63
2023-02-23T17:18:00.134Z,9.95
2023-02-23T17:20:47.912Z,9.78
2023-02-23T17:23:45.007Z,9.90
2023-02-23T17:26:32.119Z,10.28
2023-02-23T17:29:20.958Z,10.68
2023-02-23T17:32:08.404Z,11.12
2023-02-23T17:34:56.424Z,23.90
2023-02-23T17:37:45.658Z,16.10
2023-02-23T17:40:35.144Z,20.77
2023-02-23T17:43:24.113Z,17.20
2023-02-23T17:46:13.346Z,11.85
2023-02-23T17:49:00.569Z,11.45
2023-02-23T17:51:48.112Z,12.20
2023-02-23T17:54:35.742Z,13.38
2023-02-23T17:57:24.237Z,12.13
2023-02-23T18:00:14.143Z,11.57
2023-02-23T18:03:01.754Z,11.30
2023-02-23T18:05:49.138Z,12.25
2023-02-23T18:08:38.063Z,12.00
2023-02-23T18:11:25.762Z,11.48
2023-02-23T18:14:14.225Z,11.70
2023-02-23T18:17:01.679Z,11.48
2023-02-23T18:19:51.089Z,12.05
2023-02-23T18:22:38.279Z,14.23
2023-02-23T18:25:30.203Z,13.18
2023-02-23T18:28:19.084Z,13.43
2023-02-23T18:31:06.623Z,13.08
2023-02-23T18:33:54.141Z,12.13
2023-02-23T18:36:42.841Z,11.45
2023-02-23T18:39:34.134Z,11.73
2023-02-23T18:42:22.331Z,12.18
2023-02-23T18:45:09.860Z,13.05
2023-02-23T18:47:57.549Z,12.00
2023-02-23T18:50:45.019Z,11.78
2023-02-23T18:53:37.433Z,12.50
2023-02-23T18:56:30.149Z,11.93
2023-02-23T18:59:17.504Z,11.93
2023-02-23T19:02:05.096Z,12.73
2023-02-23T19:04:52.426Z,12.55
2023-02-23T19:07:41.106Z,13.35
2023-02-23T19:10:30.197Z,12.63
2023-02-23T19:13:19.318Z,12.68
2023-02-23T19:16:09.619Z,13.53
2023-02-23T19:18:56.790Z,14.07
2023-02-23T19:21:44.164Z,13.93
2023-02-23T19:24:31.682Z,13.48
2023-02-23T19:27:19.372Z,14.25
2023-02-23T19:30:09.005Z,14.95
2023-02-23T19:32:58.559Z,16.37
2023-02-23T19:35:45.742Z,16.27
2023-02-23T19:38:33.409Z,15.80
2023-02-23T19:41:22.400Z,14.78
2023-02-23T19:44:10.681Z,15.40
2023-02-23T19:47:01.326Z,15.25
2023-02-23T19:49:48.815Z,14.90
2023-02-23T19:52:37.900Z,14.50
2023-02-23T19:55:25.642Z,12.55
2023-02-23T19:58:14.026Z,13.65
2023-02-23T20:01:10.205Z,13.20
2023-02-23T20:04:01.512Z,13.70
2023-02-23T20:06:48.756Z,13.55
2023-02-23T20:09:35.959Z,13.68
2023-02-23T20:12:23.621Z,15.25
2023-02-23T20:15:13.203Z,18.70
2023-02-23T20:18:00.417Z,27.13
2023-02-23T20:20:47.673Z,20.72
2023-02-23T20:23:35.780Z,18.35
2023-02-23T20:26:29.205Z,15.75
2023-02-23T20:29:19.052Z,15.60
2023-02-23T20:32:07.040Z,16.02
2023-02-23T20:34:54.975Z,15.70
2023-02-23T20:37:42.884Z,15.70
2023-02-23T20:40:30.445Z,15.63
2023-02-23T20:43:18.020Z,15.55
2023-02-23T20:46:05.983Z,16.45
2023-02-23T20:48:53.386Z,15.70
2023-02-23T20:51:43.122Z,15.38
2023-02-23T20:54:30.705Z,14.68
2023-02-23T20:57:17.848Z,15.53
2023-02-23T21:00:12.409Z,14.83
2023-02-23T21:03:04.967Z,14.90
2023-02-23T21:05:52.565Z,15.35
2023-02-23T21:08:42.172Z,15.35
2023-02-23T21:11:32.522Z,14.75
2023-02-23T21:14:20.635Z,16.35
2023-02-23T21:17:08.797Z,15.65
2023-02-23T21:19:57.554Z,15.32
2023-02-23T21:22:44.821Z,14.53
2023-02-23T21:25:32.793Z,16.25
2023-02-23T21:28:22.162Z,15.00
2023-02-23T21:31:10.909Z,15.32
2023-02-23T21:33:58.064Z,15.65
2023-02-23T21:36:46.267Z,14.78
2023-02-23T21:39:33.896Z,15.68
2023-02-23T21:42:23.668Z,14.80
2023-02-23T21:45:13.812Z,15.08
2023-02-23T21:48:00.954Z,15.28
2023-02-23T21:50:48.656Z,14.58
2023-02-23T21:53:37.608Z,16.37
2023-02-23T21:56:26.444Z,17.25
2023-02-23T21:59:13.571Z,18.25
2023-02-23T22:02:00.931Z,17.23
2023-02-23T22:04:50.322Z,16.30
2023-02-23T22:07:37.654Z,16.90
2023-02-23T22:10:27.031Z,16.35
2023-02-23T22:13:14.588Z,17.75
2023-02-23T22:16:01.865Z,16.95
2023-02-23T22:18:50.522Z,17.15
2023-02-23T22:21:40.036Z,16.93
2023-02-23T22:24:27.241Z,17.10
2023-02-23T22:27:16.366Z,17.80
2023-02-23T22:30:05.173Z,16.27
2023-02-23T22:32:52.738Z,16.60
2023-02-23T22:35:42.910Z,16.48
2023-02-23T22:38:30.788Z,15.18
2023-02-23T22:41:18.036Z,14.65
2023-02-23T22:44:07.303Z,13.20
2023-02-23T22:46:54.876Z,13.93
2023-02-23T22:49:42.377Z,13.25
2023-02-23T22:52:30.031Z,13.28
2023-02-23T22:55:19.368Z,12.28
2023-02-23T22:58:08.297Z,12.43
2023-02-23T23:01:01.550Z,12.63
2023-02-23T23:03:49.039Z,12.40
2023-02-23T23:06:41.409Z,13.45
2023-02-23T23:09:29.103Z,11.90
2023-02-23T23:12:17.978Z,11.68
2023-02-23T23:15:07.219Z,11.70
2023-02-23T23:17:54.410Z,11.83
2023-02-23T23:20:43.956Z,10.95
2023-02-23T23:23:33.080Z,8.95
2023-02-23T23:26:21.861Z,10.63
2023-02-23T23:29:12.058Z,12.00
2023-02-23T23:32:01.084Z,10.98
2023-02-23T23:34:50.045Z,12.20
2023-02-23T23:37:39.793Z,12.40
2023-02-23T23:40:27.225Z,12.75
2023-02-23T23:43:14.821Z,12.82
2023-02-23T23:46:08.612Z,12.78
2023-02-23T23:49:02.231Z,13.10
2023-02-23T23:51:51.631Z,13.98
2023-02-23T23:54:39.467Z,13.62
2023-02-23T23:57:26.717Z,14.75
